Outage due to equipment failure. Site will not be transmitting information for the foreseeable future.

Latest Weather Observations for Rundle Island

IDQ60801

Issued at 6:35 pm EST Thursday 23 October 2014 (issued every 30 minutes, with the page automatically refreshed every 10 minutes)

About weather observations | Map of weather stations | Latest weather observations for QLD | Other Formats
Station Details ID: 039322 Name: RUNDLE ISLAND Lat: -23.53 Lon: 151.28 Height: 19.8 m
Data from the previous 72 hours. | See also: Recent months at Rundle Island
Date/Time
EST
Temp
°C
App
Temp
°C
Dew
Point
Rel
Hum
%
Delta-T
°C
Wind Press
QNH
hPa
Press
MSL
hPa
Rain
since 9 am
mm
Dir
 
Spd
km/h
Gust
km/h
Spd
kts
Gust
kts
23/06:30pm 21.8 - - - - E 26 32 14 17 1018.8 1018.7 -
23/06:00pm 21.9 - - - - E 30 33 16 18 1018.5 1018.4 -
23/05:30pm 21.9 - - - - E 30 33 16 18 1018.2 1018.1 -
23/05:00pm 21.9 - - - - E 30 33 16 18 1018.1 1018.0 -
23/04:30pm 22.0 - - - - E 30 35 16 19 1017.8 1017.7 -
23/04:00pm 22.0 - - - - E 30 35 16 19 1017.4 1017.3 -
23/03:30pm 22.1 - - - - E 32 35 17 19 1017.4 1017.3 -
23/03:00pm 22.0 - - - - E 30 33 16 18 1017.7 1017.6 -
23/02:30pm 22.0 - - - - E 30 33 16 18 1018.1 1018.0 -
23/02:00pm 22.2 - - - - E 26 32 14 17 1018.3 1018.2 -
23/01:30pm 22.3 - - - - E 24 28 13 15 1018.6 1018.5 -
23/01:00pm 22.3 - - - - E 22 26 12 14 1019.1 1019.0 -
23/12:30pm 22.8 - - - - ESE 20 26 11 14 1019.3 1019.2 -
23/12:00pm 21.8 - - - - SE 19 22 10 12 1020.0 1019.9 -
23/11:30am 22.3 - - - - SE 22 26 12 14 1020.4 1020.3 -
23/11:00am 21.7 - - - - SE 22 28 12 15 1020.6 1020.5 -
23/10:30am 21.8 - - - - SE 24 28 13 15 1020.9 1020.8 -
23/10:00am 21.4 - - - - SSE 26 30 14 16 1021.3 1021.2 -
23/09:30am 21.2 - - - - SSE 24 30 13 16 1021.3 1021.2 -
23/09:00am 21.1 - - - - SSE 26 30 14 16 1021.5 1021.4 -
23/08:30am 20.6 - - - - SSE 28 32 15 17 1021.6 1021.5 -
23/08:00am 20.7 - - - - SSE 28 32 15 17 1021.6 1021.5 -
23/07:30am 20.6 - - - - SSE 28 33 15 18 1021.3 1021.2 -
23/07:00am 20.4 - - - - SSE 26 30 14 16 1021.0 1020.9 -
23/06:30am 20.1 - - - - S 28 32 15 17 1020.9 1020.8 -
23/06:00am 20.1 - - - - S 28 32 15 17 1020.8 1020.7 -
23/05:30am 19.6 - - - - S 24 28 13 15 1020.6 1020.5 -
23/05:00am 19.7 - - - - S 26 30 14 16 1020.5 1020.4 -
23/04:30am 20.0 - - - - S 24 30 13 16 1020.2 1020.1 -
23/04:00am 20.2 - - - - S 24 30 13 16 1020.1 1020.0 -
23/03:30am 20.6 - - - - SSE 19 22 10 12 1020.0 1019.9 -
23/03:00am 21.0 - - - - ESE 24 30 13 16 1019.9 1019.8 -
23/02:30am 21.0 - - - - ESE 22 24 12 13 1020.3 1020.2 -
23/02:00am 21.1 - - - - ESE 22 30 12 16 1020.4 1020.3 -
23/01:30am 21.1 - - - - SE 24 32 13 17 1020.7 1020.6 -
23/01:00am 21.3 - - - - SE 28 32 15 17 1021.0 1020.9 -
23/12:30am 21.4 - - - - ESE 30 37 16 20 1021.4 1021.3 -
23/12:00am 21.4 - - - - ESE 30 37 16 20 1021.5 1021.4 -
 
Date/Time
EST
Temp
°C
App
Temp
°C
Dew
Point
Rel
Hum
%
Delta-T
°C
Wind Press
QNH
hPa
Press
MSL
hPa
Rain
since 9 am
mm
Dir
 
Spd
km/h
Gust
km/h
Spd
kts
Gust
kts
22/11:30pm 21.5 - - - - ESE 32 35 17 19 1021.7 1021.6 -
22/11:00pm 21.6 - - - - ESE 35 41 19 22 1021.8 1021.7 -
22/10:30pm 21.6 - - - - ESE 35 41 19 22 1021.7 1021.6 -
22/10:00pm 21.7 - - - - ESE 33 41 18 22 1021.9 1021.8 -
22/09:30pm 21.8 - - - - ESE 37 44 20 24 1021.6 1021.5 -
22/09:00pm 21.7 - - - - ESE 37 41 20 22 1021.6 1021.5 -
22/08:30pm 22.0 - - - - ESE 37 43 20 23 1021.4 1021.3 -
22/08:00pm 21.9 - - - - ESE 39 46 21 25 1021.1 1021.0 -
22/07:30pm 22.0 - - - - ESE 39 46 21 25 1020.8 1020.7 -
22/07:00pm 21.9 - - - - E 41 46 22 25 1020.7 1020.6 -
22/06:30pm 22.0 - - - - E 41 46 22 25 1020.4 1020.3 -
22/06:00pm 22.1 - - - - ESE 41 46 22 25 1020.1 1020.0 -
22/05:30pm 22.1 - - - - ESE 41 48 22 26 1019.8 1019.7 -
22/05:00pm 22.2 - - - - ESE 41 44 22 24 1019.6 1019.5 -
22/04:30pm 22.3 - - - - ESE 41 46 22 25 1019.4 1019.3 -
22/04:00pm 22.4 - - - - ESE 39 44 21 24 1019.2 1019.1 -
22/03:30pm 22.4 - - - - ESE 41 46 22 25 1019.3 1019.2 -
22/03:00pm 22.4 - - - - ESE 41 46 22 25 1019.4 1019.3 -
22/02:30pm 22.4 - - - - ESE 39 44 21 24 1019.7 1019.6 -
22/02:00pm 22.2 - - - - ESE 39 44 21 24 1020.1 1020.0 -
22/01:30pm 22.3 - - - - ESE 39 46 21 25 1020.6 1020.5 -
22/01:00pm 22.2 - - - - SE 39 43 21 23 1020.9 1020.8 -
22/12:30pm 22.1 - - - - SE 37 44 20 24 1021.4 1021.3 -
22/12:00pm 21.9 - - - - SE 35 44 19 24 1022.0 1021.9 -
22/11:30am 21.8 - - - - SE 35 41 19 22 1022.2 1022.1 -
22/11:00am 21.8 - - - - SE 37 43 20 23 1022.5 1022.4 -
22/10:30am 21.7 - - - - SE 37 46 20 25 1022.8 1022.7 -
22/10:00am 21.8 - - - - SSE 33 41 18 22 1023.1 1023.0 -
22/09:30am 21.5 - - - - SSE 33 39 18 21 1023.4 1023.3 -
22/09:00am 21.2 - - - - SSE 33 39 18 21 1023.3 1023.2 -
22/08:30am 20.9 - - - - SSE 37 44 20 24 1023.2 1023.1 -
22/08:00am 21.6 - - - - SSE 35 41 19 22 1022.9 1022.8 -
22/07:30am 21.2 - - - - SSE 33 39 18 21 1022.8 1022.7 -
22/07:00am 20.8 - - - - SSE 35 39 19 21 1022.7 1022.6 -
22/06:30am 20.7 - - - - SSE 35 41 19 22 1022.4 1022.3 -
22/06:00am 20.5 - - - - SSE 33 39 18 21 1022.1 1022.0 -
22/05:30am 20.7 - - - - SE 37 43 20 23 1021.8 1021.7 -
22/05:00am 20.9 - - - - SE 35 39 19 21 1021.5 1021.4 -
22/04:30am 21.1 - - - - SE 37 46 20 25 1021.4 1021.3 -
22/04:00am 21.2 - - - - SE 33 39 18 21 1021.3 1021.2 -
22/03:30am 21.2 - - - - SE 35 39 19 21 1021.5 1021.4 -
22/03:00am 21.1 - - - - SE 33 41 18 22 1021.5 1021.4 -
22/02:30am 20.9 - - - - SSE 50 54 27 29 1021.4 1021.3 -
22/02:28am 21.6 - - - - ESE 32 56 17 30 1021.6 1021.5 -
22/02:00am 21.4 - - - - ESE 33 39 18 21 1021.7 1021.6 -
22/01:30am 21.9 - - - - ESE 33 39 18 21 1022.0 1021.9 -
22/01:00am 21.9 - - - - ESE 33 39 18 21 1022.5 1022.4 -
22/12:30am 21.8 - - - - ESE 35 41 19 22 1022.8 1022.7 -
22/12:00am 21.9 - - - - ESE 37 43 20 23 1023.3 1023.2 -
 
Date/Time
EST
Temp
°C
App
Temp
°C
Dew
Point
Rel
Hum
%
Delta-T
°C
Wind Press
QNH
hPa
Press
MSL
hPa
Rain
since 9 am
mm
Dir
 
Spd
km/h
Gust
km/h
Spd
kts
Gust
kts
21/11:30pm 22.1 - - - - ESE 35 43 19 23 1023.7 1023.6 -
21/11:00pm 21.9 - - - - ESE 37 44 20 24 1023.9 1023.8 -
21/10:30pm 21.9 - - - - ESE 41 48 22 26 1023.9 1023.8 -
21/10:00pm 22.1 - - - - ESE 37 44 20 24 1024.1 1024.0 -
21/09:30pm 22.0 - - - - ESE 37 44 20 24 1024.1 1024.0 -
21/09:00pm 21.9 - - - - ESE 37 44 20 24 1024.1 1024.0 -
21/08:30pm 22.1 - - - - ESE 37 44 20 24 1024.1 1024.0 -
21/08:00pm 22.3 - - - - ESE 37 43 20 23 1023.8 1023.7 -
21/07:30pm 22.1 - - - - ESE 37 44 20 24 1023.6 1023.5 -
21/07:00pm 21.9 - - - - ESE 37 43 20 23 1023.3 1023.2 -
21/06:30pm 22.1 - - - - ESE 41 44 22 24 1023.0 1022.9 -
21/06:00pm 22.1 - - - - ESE 39 44 21 24 1022.6 1022.5 -
21/05:30pm 21.9 - - - - ESE 41 46 22 25 1022.2 1022.1 -
21/05:00pm 22.2 - - - - ESE 39 43 21 23 1021.9 1021.8 -
21/04:30pm 22.2 - - - - ESE 35 41 19 22 1022.0 1021.9 -
21/04:00pm 22.0 - - - - ESE 33 41 18 22 1021.8 1021.7 -
21/03:30pm 22.2 - - - - ESE 33 39 18 21 1021.8 1021.7 -
21/03:00pm 22.3 - - - - ESE 33 39 18 21 1021.9 1021.8 -
21/02:30pm 22.4 - - - - ESE 30 37 16 20 1022.1 1022.0 -
21/02:00pm 22.4 - - - - SE 32 37 17 20 1022.5 1022.4 -
21/01:30pm 22.6 - - - - SE 35 41 19 22 1022.6 1022.5 -
21/01:00pm 22.4 - - - - SE 37 43 20 23 1023.1 1023.0 -
21/12:30pm 22.3 - - - - SE 37 43 20 23 1023.4 1023.3 -
21/12:00pm 22.4 - - - - SE 39 44 21 24 1023.6 1023.5 -
21/11:30am 22.5 - - - - SE 43 48 23 26 1023.9 1023.8 -
21/11:00am 22.4 - - - - SE 43 48 23 26 1024.4 1024.3 -
21/10:30am 22.6 - - - - SE 39 44 21 24 1024.6 1024.5 -
21/10:00am 22.5 - - - - SE 41 46 22 25 1024.8 1024.7 -
21/09:30am 22.2 - - - - SE 39 46 21 25 1024.7 1024.6 -
21/09:00am 21.7 - - - - SE 41 48 22 26 1024.7 1024.6 -
21/08:30am 20.5 - - - - SE 41 50 22 27 1024.7 1024.6 -
21/08:00am 20.8 - - - - SSE 37 43 20 23 1024.1 1024.0 -
21/07:30am 21.1 - - - - SSE 35 43 19 23 1023.9 1023.8 -
21/07:00am 20.9 - - - - SSE 33 39 18 21 1023.4 1023.3 -
21/06:30am 21.1 - - - - SSE 35 41 19 22 1023.1 1023.0 -
21/06:00am 21.2 - - - - SSE 35 41 19 22 1022.7 1022.6 -
21/05:30am 21.8 - - - - SE 35 43 19 23 1022.5 1022.4 -
21/05:00am 21.8 - - - - ESE 37 43 20 23 1022.1 1022.0 -
21/04:30am 22.0 - - - - ESE 39 43 21 23 1021.8 1021.7 -
21/04:00am 21.9 - - - - ESE 35 41 19 22 1021.6 1021.5 -
21/03:30am 22.0 - - - - ESE 33 39 18 21 1021.7 1021.6 -
21/03:00am 21.9 - - - - ESE 35 43 19 23 1021.7 1021.6 -
21/02:30am 21.9 - - - - ESE 33 39 18 21 1021.5 1021.4 -
21/02:00am 21.8 - - - - ESE 33 39 18 21 1021.7 1021.6 -
21/01:30am 22.0 - - - - ESE 35 41 19 22 1021.9 1021.8 -
21/01:00am 21.8 - - - - ESE 35 39 19 21 1022.2 1022.1 -
21/12:30am 21.9 - - - - ESE 37 43 20 23 1022.6 1022.5 -
21/12:00am 21.8 - - - - ESE 32 37 17 20 1023.0 1022.9 -
 
Date/Time
EST
Temp
°C
App
Temp
°C
Dew
Point
Rel
Hum
%
Delta-T
°C
Wind Press
QNH
hPa
Press
MSL
hPa
Rain
since 9 am
mm
Dir
 
Spd
km/h
Gust
km/h
Spd
kts
Gust
kts
20/11:30pm 22.0 - - - - ESE 28 32 15 17 1023.5 1023.4 -
20/11:00pm 21.9 - - - - ESE 30 33 16 18 1023.9 1023.8 -
20/10:30pm 21.9 - - - - ESE 28 32 15 17 1023.9 1023.8 -
20/10:00pm 22.3 - - - - ESE 26 32 14 17 1024.0 1023.9 -
20/09:30pm 22.2 - - - - ESE 26 30 14 16 1024.0 1023.9 -
20/09:00pm 21.7 - - - - E 28 32 15 17 1023.7 1023.6 -
20/08:30pm 21.8 - - - - ESE 26 32 14 17 1023.4 1023.3 -
20/08:00pm 21.8 - - - - ESE 28 33 15 18 1023.0 1022.9 -
20/07:30pm 21.6 - - - - E 30 33 16 18 1022.3 1022.2 -
20/07:00pm 21.6 - - - - E 32 37 17 20 1021.9 1021.8 -

Other Formats:

Comma delimited format used in spreadsheet applications
http://www.bom.gov.au/fwo/IDQ60801/IDQ60801.94378.axf

JavaScript Object Notation format (JSON) in row-major order
http://www.bom.gov.au/fwo/IDQ60801/IDQ60801.94378.json